Scf Ural — ELZP7 — position and weather

sailwx.info

Track history (hours):
 
Tides and Currents Weather Stations Pressure Air Temp Water Temp Dewpoint Dewpoint Depression Visibility Wind Speed Wind Dir Waves Ship Positions

Scf Ural

Last reported at 2017-Nov-01 19:16 UTC. Time now 2017-Nov-19 19:58 UTC.
Position N 27°35' W 015°14'.
Warning: this ship's position is 18 days out of date.

Length 274 m; draft 9.1 m.

Type: Ship. MMSI: 636011494.

Date/timePositionNaut miles runAvg speedWind from/ knotsBaromVisibWave heightAir tempDewpointWater temp
2017-Nov-01 19:16N 27°35' W 015°14'312.5
2017-Nov-01 19:00N 27°38' W 015°13'612.5
2017-Nov-01 18:30N 27°44' W 015°10'39 2.4
2017-Nov-01 02:00N 28°23' W 015°05'1 1.1
2017-Nov-01 01:30N 28°23' W 015°06'1 1.2
2017-Nov-01 01:00N 28°23' W 015°06'1 1.1
2017-Nov-01 00:30N 28°24' W 015°06'1 1.0
2017-Nov-01 00:00N 28°24' W 015°06'1 1.0
2017-Oct-31 23:30N 28°25' W 015°05'0 0.9
2017-Oct-31 23:00N 28°25' W 015°05'0 0.9
2017-Oct-31 22:30N 28°26' W 015°05'0 0.9
2017-Oct-31 22:00N 28°26' W 015°05'0 1.0
2017-Oct-31 21:30N 28°26' W 015°05'1 1.0
2017-Oct-31 21:00N 28°27' W 015°05'1 1.1
2017-Oct-31 20:30N 28°27' W 015°04'1 1.1
2017-Oct-31 20:00N 28°28' W 015°04'1 1.1
2017-Oct-31 19:30N 28°29' W 015°04'1 1.1
2017-Oct-31 19:00N 28°29' W 015°04'1 1.0
2017-Oct-31 18:30N 28°30' W 015°04'1 1.0
2017-Oct-31 18:00N 28°30' W 015°04'0 0.9
2017-Oct-31 17:30N 28°31' W 015°04'0 1.0
2017-Oct-31 17:00N 28°31' W 015°04'0 0.9
2017-Oct-31 16:30N 28°32' W 015°04'1 1.1
2017-Oct-31 16:00N 28°32' W 015°04'1 1.4
2017-Oct-31 15:30N 28°32' W 015°05'2 3.5
2017-Oct-31 15:00N 28°32' W 015°07'611.9
2017-Oct-31 14:30N 28°29' W 015°13'612.8
2017-Oct-31 14:00N 28°26' W 015°19'2 4.1
2017-Oct-31 13:30N 28°24' W 015°20'1 1.2
2017-Oct-31 13:00N 28°24' W 015°19'1 1.3
2017-Oct-31 12:30N 28°24' W 015°18'1 1.3
2017-Oct-31 12:00N 28°24' W 015°18'1 1.3
2017-Oct-31 11:30N 28°24' W 015°17'1 1.4
2017-Oct-31 11:00N 28°24' W 015°16'1 1.4
2017-Oct-31 10:30N 28°24' W 015°15'1 1.3
2017-Oct-31 10:00N 28°24' W 015°15'1 1.4
2017-Oct-31 09:30N 28°24' W 015°14'1 1.4
2017-Oct-31 09:00N 28°24' W 015°13'1 1.4
2017-Oct-31 08:30N 28°25' W 015°12'1 1.4
2017-Oct-31 08:00N 28°25' W 015°12'1 1.3
2017-Oct-31 07:30N 28°25' W 015°11'1 1.4
2017-Oct-31 07:00N 28°26' W 015°10'1 1.4
2017-Oct-31 06:30N 28°26' W 015°10'1 1.3
2017-Oct-31 06:00N 28°27' W 015°09'1 1.1
2017-Oct-31 05:30N 28°27' W 015°09'1 1.1
2017-Oct-31 05:00N 28°28' W 015°09'1 1.2
2017-Oct-31 04:30N 28°28' W 015°08'1 1.1
2017-Oct-31 04:00N 28°28' W 015°08'1 1.5
2017-Oct-31 03:30N 28°28' W 015°07'2 4.5
2017-Oct-31 03:00N 28°26' W 015°06'4 7.4
2017-Oct-31 02:30N 28°22' W 015°06'3 5.8
2017-Oct-31 02:00N 28°19' W 015°06'1 1.6
2017-Oct-31 01:30N 28°19' W 015°05'1 1.0
2017-Oct-31 01:00N 28°19' W 015°05'4 8.0
2017-Oct-31 00:30N 28°17' W 015°09'714.4
2017-Oct-31 00:00N 28°13' W 015°16'714.1
2017-Oct-30 23:30N 28°09' W 015°22'2 3.2
2017-Oct-30 22:59N 28°08' W 015°24'0 0.1
2017-Oct-30 22:29N 28°08' W 015°24'0 0.0
2017-Oct-30 21:59N 28°08' W 015°24'0 0.1
2017-Oct-30 21:29N 28°08' W 015°24'0 0.0
2017-Oct-30 20:59N 28°08' W 015°24'0 0.1
2017-Oct-30 20:29N 28°08' W 015°24'0 0.0
2017-Oct-30 19:59N 28°08' W 015°24'0 0.1
2017-Oct-30 19:29N 28°08' W 015°24'0 0.1
2017-Oct-30 18:59N 28°08' W 015°24'0 0.0
2017-Oct-30 18:29N 28°08' W 015°24'0 0.1
2017-Oct-30 17:59N 28°08' W 015°24'0 0.1
2017-Oct-30 17:29N 28°08' W 015°24'0 0.0
2017-Oct-30 16:50N 28°08' W 015°24'0 0.1
2017-Oct-30 16:20N 28°08' W 015°24'0 0.0
2017-Oct-30 15:53N 28°08' W 015°24'0 0.0
2017-Oct-30 15:23N 28°08' W 015°24'0 0.0
2017-Oct-30 14:53N 28°08' W 015°24'0 0.0
2017-Oct-30 14:23N 28°08' W 015°24'0 0.1
2017-Oct-30 13:23N 28°08' W 015°24'0 0.0
2017-Oct-30 12:56N 28°08' W 015°24'0 0.0
2017-Oct-30 12:26N 28°08' W 015°24'0 0.0
2017-Oct-30 11:56N 28°08' W 015°24'0 0.0
2017-Oct-30 11:26N 28°08' W 015°24'0 0.0
2017-Oct-30 10:56N 28°08' W 015°24'0 0.1
2017-Oct-30 10:26N 28°08' W 015°24'0 0.0
2017-Oct-30 09:59N 28°08' W 015°24'0 0.0
2017-Oct-30 09:29N 28°08' W 015°24'0 0.0
2017-Oct-30 08:59N 28°08' W 015°24'0 0.0
2017-Oct-30 08:29N 28°08' W 015°24'0 0.0
2017-Oct-30 07:44N 28°08' W 015°24'0 0.3
2017-Oct-30 07:29N 28°08' W 015°24'1 1.9
2017-Oct-30 07:00N 28°07' W 015°23'1 1.8
2017-Oct-30 06:30N 28°06' W 015°22'0 0.9
2017-Oct-30 06:00N 28°07' W 015°22'1 2.5
2017-Oct-30 05:30N 28°07' W 015°21'2 3.7
2017-Oct-30 05:00N 28°08' W 015°19'3 6.9
2017-Oct-30 04:30N 28°09' W 015°15'4 7.3
2017-Oct-30 04:01N 28°09' W 015°11'4 8.5
2017-Oct-30 03:30N 28°10' W 015°06'4 8.3
2017-Oct-30 03:00N 28°11' W 015°02'4 7.1
2017-Oct-30 02:30N 28°14' W 014°59'4 8.7
2017-Oct-30 02:00N 28°18' W 014°57'4 8.7
2017-Oct-30 01:30N 28°22' W 014°55'4 8.6
2017-Oct-30 01:00N 28°26' W 014°54'4 8.5
2017-Oct-30 00:30N 28°30' W 014°53'4 8.5
2017-Oct-30 00:00N 28°34' W 014°51'4 8.4
2017-Oct-29 23:30N 28°38' W 014°50'4 8.4
2017-Oct-29 23:00N 28°42' W 014°48'4 8.5
2017-Oct-29 22:31N 28°46' W 014°47'4 8.5
2017-Oct-29 22:00N 28°50' W 014°45'4 8.6
2017-Oct-29 21:30N 28°54' W 014°44'4 8.5
2017-Oct-29 21:00N 28°58' W 014°42'4 8.4
2017-Oct-29 20:30N 29°02' W 014°41'4 8.4
2017-Oct-29 20:00N 29°06' W 014°40'4 8.4
2017-Oct-29 19:30N 29°10' W 014°38'4 8.4
2017-Oct-29 19:00N 29°14' W 014°37'5 8.3
2017-Oct-29 18:27N 29°19' W 014°35'4 8.4
2017-Oct-29 18:00N 29°22' W 014°34'4 8.5
2017-Oct-29 17:30N 29°26' W 014°32'4 8.3
2017-Oct-29 17:00N 29°30' W 014°31'4 8.3
2017-Oct-29 16:30N 29°34' W 014°29'4 8.3
2017-Oct-29 16:00N 29°38' W 014°28'5 8.2
2017-Oct-29 15:25N 29°43' W 014°27'3 8.1
2017-Oct-29 15:00N 29°46' W 014°25'5 8.1
2017-Oct-29 14:26N 29°50' W 014°24'3 7.9
2017-Oct-29 14:00N 29°54' W 014°23'4 7.9
2017-Oct-29 13:30N 29°58' W 014°21'4 8.0
2017-Oct-29 13:01N 30°01' W 014°20'4 7.9
2017-Oct-29 12:30N 30°05' W 014°18'4 7.8
2017-Oct-29 12:00N 30°09' W 014°17'4 7.9
2017-Oct-29 11:30N 30°13' W 014°16'4 7.9
2017-Oct-29 10:57N 30°17' W 014°14'7 7.8
2017-Oct-29 10:01N 30°24' W 014°12'0 7.7
2017-Oct-29 10:00N 30°24' W 014°12'4 7.5
2017-Oct-29 09:30N 30°27' W 014°10'4 7.9
2017-Oct-29 08:59N 30°31' W 014°09'714.1
2017-Oct-29 08:29N 30°38' W 014°07'714.7
2017-Oct-29 08:00N 30°45' W 014°04'1212.1
2017-Oct-29 07:03N 30°56' W 014°00'112.2
2017-Oct-29 07:00N 30°56' W 013°60'612.1
2017-Oct-29 06:30N 31°02' W 013°58'712.2
2017-Oct-29 05:54N 31°09' W 013°55'512.2
2017-Oct-29 05:30N 31°14' W 013°54'612.0
2017-Oct-29 05:00N 31°19' W 013°51'612.1
2017-Oct-29 04:30N 31°25' W 013°49'712.5
2017-Oct-29 03:59N 31°32' W 013°47'13912.5
2017-Oct-28 16:49N 33°44' W 012°58'612.1
2017-Oct-28 16:20N 33°50' W 012°55'42 8.5
2017-Oct-28 11:25N 34°30' W 012°40'5 8.2
2017-Oct-28 10:51N 34°34' W 012°39'5 8.3
2017-Oct-28 10:19N 34°38' W 012°37'4 8.4
2017-Oct-28 09:53N 34°42' W 012°36'6 8.3
2017-Oct-28 09:06N 34°48' W 012°33'1 8.1
2017-Oct-28 08:57N 34°49' W 012°33'4 8.2
2017-Oct-28 08:30N 34°53' W 012°31'4 8.8
2017-Oct-28 08:00N 34°57' W 012°30'714.6
2017-Oct-28 07:30N 35°04' W 012°27'1613.3
2017-Oct-28 06:17N 35°19' W 012°21'312.2
2017-Oct-28 06:00N 35°22' W 012°20'612.1
2017-Oct-28 05:30N 35°28' W 012°18'10612.2
2017-Oct-27 20:46N 37°09' W 011°35'312.0
2017-Oct-27 20:30N 37°12' W 011°33'612.0
2017-Oct-27 20:00N 37°17' W 011°30'611.9
2017-Oct-27 19:30N 37°23' W 011°28'612.0
2017-Oct-27 19:00N 37°29' W 011°25'612.2
2017-Oct-27 18:30N 37°34' W 011°22'612.5
2017-Oct-27 18:00N 37°40' W 011°19'1412.5
2017-Oct-27 16:53N 37°53' W 011°12'1312.6
2017-Oct-27 15:50N 38°05' W 011°07'412.7
2017-Oct-27 15:30N 38°09' W 011°04'612.6
2017-Oct-27 15:00N 38°15' W 011°01'612.4
2017-Oct-27 14:30N 38°20' W 010°58'612.1
2017-Oct-27 14:00N 38°26' W 010°54'611.6
2017-Oct-27 13:30N 38°31' W 010°50'611.6
2017-Oct-27 13:00N 38°36' W 010°48'612.2
2017-Oct-27 12:30N 38°42' W 010°45'510.2
2017-Oct-27 12:00N 38°47' W 010°42'1 1.9
2017-Oct-27 11:30N 38°47' W 010°43'1 2.1
2017-Oct-27 11:00N 38°48' W 010°44'3 4.8
2017-Oct-27 10:24N 38°51' W 010°43'3 8.6
2017-Oct-27 10:00N 38°54' W 010°41'5 9.2
2017-Oct-27 09:30N 38°59' W 010°39'4 8.9
2017-Oct-27 09:00N 39°03' W 010°37'4 9.0
2017-Oct-27 08:30N 39°07' W 010°35'714.3
2017-Oct-27 08:00N 39°14' W 010°32'815.4
2017-Oct-27 07:30N 39°21' W 010°28'713.9
2017-Oct-27 07:00N 39°27' W 010°24'4 8.1
2017-Oct-27 06:30N 39°31' W 010°22'4 8.1
2017-Oct-27 06:00N 39°35' W 010°21'4 8.1
2017-Oct-27 05:30N 39°38' W 010°19'5 8.1
2017-Oct-27 04:56N 39°43' W 010°16'104 8.1
2017-Oct-26 16:07N 41°05' W 008°53'1 7.9
2017-Oct-26 16:00N 41°06' W 008°52'4 7.8
2017-Oct-26 15:30N 41°09' W 008°49'2 4.4
2017-Oct-26 14:58N 41°10' W 008°47'0 0.1
2017-Oct-26 14:28N 41°10' W 008°47'0 0.0
2017-Oct-26 13:55N 41°10' W 008°47'0 0.1
2017-Oct-26 13:28N 41°10' W 008°47'0 0.1
2017-Oct-26 12:58N 41°10' W 008°47'0 0.1
2017-Oct-26 12:28N 41°10' W 008°47'0 0.1
2017-Oct-26 11:58N 41°10' W 008°47'0 0.0
2017-Oct-26 11:28N 41°10' W 008°47'0 0.1
2017-Oct-26 10:58N 41°10' W 008°47'0 0.0
2017-Oct-26 10:28N 41°10' W 008°47'0 0.0
2017-Oct-26 09:58N 41°10' W 008°47'0 0.0
2017-Oct-26 09:28N 41°10' W 008°47'0 0.0
2017-Oct-26 08:58N 41°10' W 008°47'0 0.0
2017-Oct-26 08:28N 41°10' W 008°47'0 0.0
2017-Oct-26 07:58N 41°10' W 008°47'0 0.0
2017-Oct-26 07:28N 41°10' W 008°47'0 0.1
2017-Oct-26 06:58N 41°10' W 008°47'0 0.1
2017-Oct-26 06:28N 41°10' W 008°47'0 0.0
2017-Oct-26 05:58N 41°10' W 008°47'0 0.0
2017-Oct-26 05:19N 41°10' W 008°47'0 0.0
2017-Oct-26 04:58N 41°10' W 008°47'0 0.0
2017-Oct-26 04:28N 41°10' W 008°47'0 0.0
2017-Oct-26 03:58N 41°10' W 008°47'0 0.0
2017-Oct-26 03:28N 41°10' W 008°47'0 0.0
2017-Oct-26 02:58N 41°10' W 008°47'0 0.0
2017-Oct-26 02:28N 41°10' W 008°47'0 0.0
2017-Oct-26 01:58N 41°10' W 008°47'0 0.1
2017-Oct-26 01:28N 41°10' W 008°47'0 0.1
2017-Oct-26 00:58N 41°10' W 008°47'0 0.0
2017-Oct-26 00:28N 41°10' W 008°47'0 0.0
2017-Oct-25 23:58N 41°10' W 008°47'0 0.0
2017-Oct-25 23:28N 41°10' W 008°47'0 0.0
2017-Oct-25 22:58N 41°10' W 008°47'0 0.0
2017-Oct-25 22:28N 41°10' W 008°47'0 0.1
2017-Oct-25 21:58N 41°10' W 008°47'0 0.0
2017-Oct-25 21:28N 41°10' W 008°47'0 0.1
2017-Oct-25 20:58N 41°10' W 008°47'0 0.1
2017-Oct-25 20:28N 41°10' W 008°47'0 0.0
2017-Oct-25 19:58N 41°10' W 008°47'0 0.0
2017-Oct-25 19:28N 41°10' W 008°47'0 0.0
2017-Oct-25 18:58N 41°10' W 008°47'0 0.2
2017-Oct-25 18:30N 41°11' W 008°47'2 4.1
2017-Oct-25 18:00N 41°12' W 008°45'0 0.5
2017-Oct-25 17:29N 41°12' W 008°45'0 0.0
2017-Oct-25 16:56N 41°12' W 008°45'0 0.0
2017-Oct-25 16:29N 41°12' W 008°45'0 0.0
2017-Oct-25 15:59N 41°12' W 008°45'0 0.0
2017-Oct-25 15:29N 41°12' W 008°45'0 0.0
2017-Oct-25 14:59N 41°12' W 008°45'0 0.0
2017-Oct-25 14:29N 41°12' W 008°45'0 0.0
2017-Oct-25 13:59N 41°12' W 008°45'0 0.1
2017-Oct-25 13:29N 41°12' W 008°45'0 0.0
2017-Oct-25 12:59N 41°12' W 008°45'0 0.0
2017-Oct-25 12:29N 41°12' W 008°45'0 0.0
2017-Oct-25 11:59N 41°12' W 008°45'0 0.0
2017-Oct-25 11:29N 41°12' W 008°45'0 0.0
2017-Oct-25 10:59N 41°12' W 008°45'0 0.0
2017-Oct-25 10:29N 41°12' W 008°45'0 0.0
2017-Oct-25 09:59N 41°12' W 008°45'0 0.1
2017-Oct-25 09:29N 41°12' W 008°45'0 0.1
2017-Oct-25 08:59N 41°12' W 008°45'0 0.1
2017-Oct-25 08:29N 41°12' W 008°45'0 0.0
2017-Oct-25 07:59N 41°12' W 008°45'0 0.0
2017-Oct-25 07:29N 41°12' W 008°45'0 0.1
2017-Oct-25 06:56N 41°12' W 008°45'0 0.0
2017-Oct-25 06:29N 41°12' W 008°45'0 0.0
2017-Oct-25 05:59N 41°12' W 008°45'0 0.1
2017-Oct-25 05:29N 41°12' W 008°45'0 0.0
2017-Oct-25 04:59N 41°12' W 008°45'0 0.0
2017-Oct-25 04:29N 41°12' W 008°45'0 0.0
2017-Oct-25 03:50N 41°12' W 008°45'0 0.0
2017-Oct-25 03:29N 41°12' W 008°45'0 0.0
2017-Oct-25 02:59N 41°12' W 008°45'0 0.0
2017-Oct-25 02:29N 41°12' W 008°45'0 0.0
2017-Oct-25 01:59N 41°12' W 008°45'0 0.0
2017-Oct-25 01:29N 41°12' W 008°45'0 0.1
2017-Oct-25 00:59N 41°12' W 008°45'0 0.0
2017-Oct-25 00:29N 41°12' W 008°45'0 0.1
2017-Oct-24 23:59N 41°12' W 008°45'0 0.1
2017-Oct-24 23:29N 41°12' W 008°45'0 0.1
2017-Oct-24 22:59N 41°12' W 008°45'0 0.0
2017-Oct-24 22:29N 41°12' W 008°45'0 0.0
2017-Oct-24 21:59N 41°12' W 008°45'0 0.1
2017-Oct-24 21:29N 41°12' W 008°45'0 0.0
2017-Oct-24 20:59N 41°12' W 008°45'0 0.1
2017-Oct-24 20:29N 41°12' W 008°45'0 0.1
2017-Oct-24 19:59N 41°12' W 008°45'0 0.0
2017-Oct-24 19:29N 41°12' W 008°45'0 0.1
2017-Oct-24 18:59N 41°12' W 008°45'0 0.1
2017-Oct-24 18:29N 41°12' W 008°45'0 0.1
2017-Oct-24 17:59N 41°12' W 008°45'0 0.0
2017-Oct-24 17:29N 41°12' W 008°45'0 0.1
2017-Oct-24 16:59N 41°12' W 008°45'0 0.1
2017-Oct-24 16:29N 41°12' W 008°45'0 0.0
2017-Oct-24 15:53N 41°12' W 008°45'0 0.0
2017-Oct-24 15:29N 41°12' W 008°45'0 0.0
2017-Oct-24 14:41N 41°12' W 008°45'0 0.0
2017-Oct-24 14:26N 41°12' W 008°45'0 0.0
2017-Oct-24 13:59N 41°12' W 008°45'0 0.0
2017-Oct-24 13:29N 41°12' W 008°45'0 0.0
2017-Oct-24 12:50N 41°12' W 008°45'0 0.0
2017-Oct-24 12:29N 41°12' W 008°45'0 0.1
2017-Oct-24 11:59N 41°12' W 008°45'0 0.2
2017-Oct-24 11:29N 41°12' W 008°45'0 0.1
2017-Oct-24 10:59N 41°12' W 008°45'0 0.8
2017-Oct-24 10:30N 41°12' W 008°45'1 2.6
2017-Oct-24 10:00N 41°10' W 008°45'2 3.1
2017-Oct-24 09:30N 41°09' W 008°46'1 1.1
2017-Oct-24 09:00N 41°09' W 008°47'1 2.8
2017-Oct-24 08:31N 41°09' W 008°49'3 4.1
2017-Oct-24 07:53N 41°07' W 008°51'3 7.5
2017-Oct-24 07:26N 41°03' W 008°52'6 0.3
2017-Oct-23 08:40N 41°09' W 008°54'1 1.9
2017-Oct-23 08:00N 41°10' W 008°55'1 2.7
2017-Oct-23 07:30N 41°11' W 008°57'2 4.0
2017-Oct-23 07:00N 41°12' W 008°59'5 5.6
2017-Oct-23 06:10N 41°14' W 009°04'1 5.3
2017-Oct-23 06:00N 41°15' W 009°05'3 5.1
2017-Oct-23 05:23N 41°16' W 009°09'2 5.5
2017-Oct-23 05:00N 41°17' W 009°12'3 5.6
2017-Oct-23 04:30N 41°18' W 009°15'  
Track history (hours):
 
Tides and Currents Weather Stations Pressure Air Temp Water Temp Dewpoint Dewpoint Depression Visibility Wind Speed Wind Dir Waves Ship Positions

Scf Ural

Last reported at 2017-Nov-01 19:16 UTC. Time now 2017-Nov-19 19:58 UTC.
Position N 27°35' W 015°14'.
Warning: this ship's position is 18 days out of date.

Length 274 m; draft 9.1 m.

Type: Ship. MMSI: 636011494.

Date/timePositionNaut miles runAvg speedWind from/ knotsBaromVisibWave heightAir tempDewpointWater temp
2017-Nov-01 19:16N 27°35' W 015°14'312.5
2017-Nov-01 19:00N 27°38' W 015°13'612.5
2017-Nov-01 18:30N 27°44' W 015°10'39 2.4
2017-Nov-01 02:00N 28°23' W 015°05'1 1.1
2017-Nov-01 01:30N 28°23' W 015°06'1 1.2
2017-Nov-01 01:00N 28°23' W 015°06'1 1.1
2017-Nov-01 00:30N 28°24' W 015°06'1 1.0
2017-Nov-01 00:00N 28°24' W 015°06'1 1.0
2017-Oct-31 23:30N 28°25' W 015°05'0 0.9
2017-Oct-31 23:00N 28°25' W 015°05'0 0.9
2017-Oct-31 22:30N 28°26' W 015°05'0 0.9
2017-Oct-31 22:00N 28°26' W 015°05'0 1.0
2017-Oct-31 21:30N 28°26' W 015°05'1 1.0
2017-Oct-31 21:00N 28°27' W 015°05'1 1.1
2017-Oct-31 20:30N 28°27' W 015°04'1 1.1
2017-Oct-31 20:00N 28°28' W 015°04'1 1.1
2017-Oct-31 19:30N 28°29' W 015°04'1 1.1
2017-Oct-31 19:00N 28°29' W 015°04'1 1.0
2017-Oct-31 18:30N 28°30' W 015°04'1 1.0
2017-Oct-31 18:00N 28°30' W 015°04'0 0.9
2017-Oct-31 17:30N 28°31' W 015°04'0 1.0
2017-Oct-31 17:00N 28°31' W 015°04'0 0.9
2017-Oct-31 16:30N 28°32' W 015°04'1 1.1
2017-Oct-31 16:00N 28°32' W 015°04'1 1.4
2017-Oct-31 15:30N 28°32' W 015°05'2 3.5
2017-Oct-31 15:00N 28°32' W 015°07'611.9
2017-Oct-31 14:30N 28°29' W 015°13'612.8
2017-Oct-31 14:00N 28°26' W 015°19'2 4.1
2017-Oct-31 13:30N 28°24' W 015°20'1 1.2
2017-Oct-31 13:00N 28°24' W 015°19'1 1.3
2017-Oct-31 12:30N 28°24' W 015°18'1 1.3
2017-Oct-31 12:00N 28°24' W 015°18'1 1.3
2017-Oct-31 11:30N 28°24' W 015°17'1 1.4
2017-Oct-31 11:00N 28°24' W 015°16'1 1.4
2017-Oct-31 10:30N 28°24' W 015°15'1 1.3
2017-Oct-31 10:00N 28°24' W 015°15'1 1.4
2017-Oct-31 09:30N 28°24' W 015°14'1 1.4
2017-Oct-31 09:00N 28°24' W 015°13'1 1.4
2017-Oct-31 08:30N 28°25' W 015°12'1 1.4
2017-Oct-31 08:00N 28°25' W 015°12'1 1.3
2017-Oct-31 07:30N 28°25' W 015°11'1 1.4
2017-Oct-31 07:00N 28°26' W 015°10'1 1.4
2017-Oct-31 06:30N 28°26' W 015°10'1 1.3
2017-Oct-31 06:00N 28°27' W 015°09'1 1.1
2017-Oct-31 05:30N 28°27' W 015°09'1 1.1
2017-Oct-31 05:00N 28°28' W 015°09'1 1.2
2017-Oct-31 04:30N 28°28' W 015°08'1 1.1
2017-Oct-31 04:00N 28°28' W 015°08'1 1.5
2017-Oct-31 03:30N 28°28' W 015°07'2 4.5
2017-Oct-31 03:00N 28°26' W 015°06'4 7.4
2017-Oct-31 02:30N 28°22' W 015°06'3 5.8
2017-Oct-31 02:00N 28°19' W 015°06'1 1.6
2017-Oct-31 01:30N 28°19' W 015°05'1 1.0
2017-Oct-31 01:00N 28°19' W 015°05'4 8.0
2017-Oct-31 00:30N 28°17' W 015°09'714.4
2017-Oct-31 00:00N 28°13' W 015°16'714.1
2017-Oct-30 23:30N 28°09' W 015°22'2 3.2
2017-Oct-30 22:59N 28°08' W 015°24'0 0.1
2017-Oct-30 22:29N 28°08' W 015°24'0 0.0
2017-Oct-30 21:59N 28°08' W 015°24'0 0.1
2017-Oct-30 21:29N 28°08' W 015°24'0 0.0
2017-Oct-30 20:59N 28°08' W 015°24'0 0.1
2017-Oct-30 20:29N 28°08' W 015°24'0 0.0
2017-Oct-30 19:59N 28°08' W 015°24'0 0.1
2017-Oct-30 19:29N 28°08' W 015°24'0 0.1
2017-Oct-30 18:59N 28°08' W 015°24'0 0.0
2017-Oct-30 18:29N 28°08' W 015°24'0 0.1
2017-Oct-30 17:59N 28°08' W 015°24'0 0.1
2017-Oct-30 17:29N 28°08' W 015°24'0 0.0
2017-Oct-30 16:50N 28°08' W 015°24'0 0.1
2017-Oct-30 16:20N 28°08' W 015°24'0 0.0
2017-Oct-30 15:53N 28°08' W 015°24'0 0.0
2017-Oct-30 15:23N 28°08' W 015°24'0 0.0
2017-Oct-30 14:53N 28°08' W 015°24'0 0.0
2017-Oct-30 14:23N 28°08' W 015°24'0 0.1
2017-Oct-30 13:23N 28°08' W 015°24'0 0.0
2017-Oct-30 12:56N 28°08' W 015°24'0 0.0
2017-Oct-30 12:26N 28°08' W 015°24'0 0.0
2017-Oct-30 11:56N 28°08' W 015°24'0 0.0
2017-Oct-30 11:26N 28°08' W 015°24'0 0.0
2017-Oct-30 10:56N 28°08' W 015°24'0 0.1
2017-Oct-30 10:26N 28°08' W 015°24'0 0.0
2017-Oct-30 09:59N 28°08' W 015°24'0 0.0
2017-Oct-30 09:29N 28°08' W 015°24'0 0.0
2017-Oct-30 08:59N 28°08' W 015°24'0 0.0
2017-Oct-30 08:29N 28°08' W 015°24'0 0.0
2017-Oct-30 07:44N 28°08' W 015°24'0 0.3
2017-Oct-30 07:29N 28°08' W 015°24'1 1.9
2017-Oct-30 07:00N 28°07' W 015°23'1 1.8
2017-Oct-30 06:30N 28°06' W 015°22'0 0.9
2017-Oct-30 06:00N 28°07' W 015°22'1 2.5
2017-Oct-30 05:30N 28°07' W 015°21'2 3.7
2017-Oct-30 05:00N 28°08' W 015°19'3 6.9
2017-Oct-30 04:30N 28°09' W 015°15'4 7.3
2017-Oct-30 04:01N 28°09' W 015°11'4 8.5
2017-Oct-30 03:30N 28°10' W 015°06'4 8.3
2017-Oct-30 03:00N 28°11' W 015°02'4 7.1
2017-Oct-30 02:30N 28°14' W 014°59'4 8.7
2017-Oct-30 02:00N 28°18' W 014°57'4 8.7
2017-Oct-30 01:30N 28°22' W 014°55'4 8.6
2017-Oct-30 01:00N 28°26' W 014°54'4 8.5
2017-Oct-30 00:30N 28°30' W 014°53'4 8.5
2017-Oct-30 00:00N 28°34' W 014°51'4 8.4
2017-Oct-29 23:30N 28°38' W 014°50'4 8.4
2017-Oct-29 23:00N 28°42' W 014°48'4 8.5
2017-Oct-29 22:31N 28°46' W 014°47'4 8.5
2017-Oct-29 22:00N 28°50' W 014°45'4 8.6
2017-Oct-29 21:30N 28°54' W 014°44'4 8.5
2017-Oct-29 21:00N 28°58' W 014°42'4 8.4
2017-Oct-29 20:30N 29°02' W 014°41'4 8.4
2017-Oct-29 20:00N 29°06' W 014°40'4 8.4
2017-Oct-29 19:30N 29°10' W 014°38'4 8.4
2017-Oct-29 19:00N 29°14' W 014°37'5 8.3
2017-Oct-29 18:27N 29°19' W 014°35'4 8.4
2017-Oct-29 18:00N 29°22' W 014°34'4 8.5
2017-Oct-29 17:30N 29°26' W 014°32'4 8.3
2017-Oct-29 17:00N 29°30' W 014°31'4 8.3
2017-Oct-29 16:30N 29°34' W 014°29'4 8.3
2017-Oct-29 16:00N 29°38' W 014°28'5 8.2
2017-Oct-29 15:25N 29°43' W 014°27'3 8.1
2017-Oct-29 15:00N 29°46' W 014°25'5 8.1
2017-Oct-29 14:26N 29°50' W 014°24'3 7.9
2017-Oct-29 14:00N 29°54' W 014°23'4 7.9
2017-Oct-29 13:30N 29°58' W 014°21'4 8.0
2017-Oct-29 13:01N 30°01' W 014°20'4 7.9
2017-Oct-29 12:30N 30°05' W 014°18'4 7.8
2017-Oct-29 12:00N 30°09' W 014°17'4 7.9
2017-Oct-29 11:30N 30°13' W 014°16'4 7.9
2017-Oct-29 10:57N 30°17' W 014°14'7 7.8
2017-Oct-29 10:01N 30°24' W 014°12'0 7.7
2017-Oct-29 10:00N 30°24' W 014°12'4 7.5
2017-Oct-29 09:30N 30°27' W 014°10'4 7.9
2017-Oct-29 08:59N 30°31' W 014°09'714.1
2017-Oct-29 08:29N 30°38' W 014°07'714.7
2017-Oct-29 08:00N 30°45' W 014°04'1212.1
2017-Oct-29 07:03N 30°56' W 014°00'112.2
2017-Oct-29 07:00N 30°56' W 013°60'612.1
2017-Oct-29 06:30N 31°02' W 013°58'712.2
2017-Oct-29 05:54N 31°09' W 013°55'512.2
2017-Oct-29 05:30N 31°14' W 013°54'612.0
2017-Oct-29 05:00N 31°19' W 013°51'612.1
2017-Oct-29 04:30N 31°25' W 013°49'712.5
2017-Oct-29 03:59N 31°32' W 013°47'13912.5
2017-Oct-28 16:49N 33°44' W 012°58'612.1
2017-Oct-28 16:20N 33°50' W 012°55'42 8.5
2017-Oct-28 11:25N 34°30' W 012°40'5 8.2
2017-Oct-28 10:51N 34°34' W 012°39'5 8.3
2017-Oct-28 10:19N 34°38' W 012°37'4 8.4
2017-Oct-28 09:53N 34°42' W 012°36'6 8.3
2017-Oct-28 09:06N 34°48' W 012°33'1 8.1
2017-Oct-28 08:57N 34°49' W 012°33'4 8.2
2017-Oct-28 08:30N 34°53' W 012°31'4 8.8
2017-Oct-28 08:00N 34°57' W 012°30'714.6
2017-Oct-28 07:30N 35°04' W 012°27'1613.3
2017-Oct-28 06:17N 35°19' W 012°21'312.2
2017-Oct-28 06:00N 35°22' W 012°20'612.1
2017-Oct-28 05:30N 35°28' W 012°18'10612.2
2017-Oct-27 20:46N 37°09' W 011°35'312.0
2017-Oct-27 20:30N 37°12' W 011°33'612.0
2017-Oct-27 20:00N 37°17' W 011°30'611.9
2017-Oct-27 19:30N 37°23' W 011°28'612.0
2017-Oct-27 19:00N 37°29' W 011°25'612.2
2017-Oct-27 18:30N 37°34' W 011°22'612.5
2017-Oct-27 18:00N 37°40' W 011°19'1412.5
2017-Oct-27 16:53N 37°53' W 011°12'1312.6
2017-Oct-27 15:50N 38°05' W 011°07'412.7
2017-Oct-27 15:30N 38°09' W 011°04'612.6
2017-Oct-27 15:00N 38°15' W 011°01'612.4
2017-Oct-27 14:30N 38°20' W 010°58'612.1
2017-Oct-27 14:00N 38°26' W 010°54'611.6
2017-Oct-27 13:30N 38°31' W 010°50'611.6
2017-Oct-27 13:00N 38°36' W 010°48'612.2
2017-Oct-27 12:30N 38°42' W 010°45'510.2
2017-Oct-27 12:00N 38°47' W 010°42'1 1.9
2017-Oct-27 11:30N 38°47' W 010°43'1 2.1
2017-Oct-27 11:00N 38°48' W 010°44'3 4.8
2017-Oct-27 10:24N 38°51' W 010°43'3 8.6
2017-Oct-27 10:00N 38°54' W 010°41'5 9.2
2017-Oct-27 09:30N 38°59' W 010°39'4 8.9
2017-Oct-27 09:00N 39°03' W 010°37'4 9.0
2017-Oct-27 08:30N 39°07' W 010°35'714.3
2017-Oct-27 08:00N 39°14' W 010°32'815.4
2017-Oct-27 07:30N 39°21' W 010°28'713.9
2017-Oct-27 07:00N 39°27' W 010°24'4 8.1
2017-Oct-27 06:30N 39°31' W 010°22'4 8.1
2017-Oct-27 06:00N 39°35' W 010°21'4 8.1
2017-Oct-27 05:30N 39°38' W 010°19'5 8.1
2017-Oct-27 04:56N 39°43' W 010°16'104 8.1
2017-Oct-26 16:07N 41°05' W 008°53'1 7.9
2017-Oct-26 16:00N 41°06' W 008°52'4 7.8
2017-Oct-26 15:30N 41°09' W 008°49'2 4.4
2017-Oct-26 14:58N 41°10' W 008°47'0 0.1
2017-Oct-26 14:28N 41°10' W 008°47'0 0.0
2017-Oct-26 13:55N 41°10' W 008°47'0 0.1
2017-Oct-26 13:28N 41°10' W 008°47'0 0.1
2017-Oct-26 12:58N 41°10' W 008°47'0 0.1
2017-Oct-26 12:28N 41°10' W 008°47'0 0.1
2017-Oct-26 11:58N 41°10' W 008°47'0 0.0
2017-Oct-26 11:28N 41°10' W 008°47'0 0.1
2017-Oct-26 10:58N 41°10' W 008°47'0 0.0
2017-Oct-26 10:28N 41°10' W 008°47'0 0.0
2017-Oct-26 09:58N 41°10' W 008°47'0 0.0
2017-Oct-26 09:28N 41°10' W 008°47'0 0.0
2017-Oct-26 08:58N 41°10' W 008°47'0 0.0
2017-Oct-26 08:28N 41°10' W 008°47'0 0.0
2017-Oct-26 07:58N 41°10' W 008°47'0 0.0
2017-Oct-26 07:28N 41°10' W 008°47'0 0.1
2017-Oct-26 06:58N 41°10' W 008°47'0 0.1
2017-Oct-26 06:28N 41°10' W 008°47'0 0.0
2017-Oct-26 05:58N 41°10' W 008°47'0 0.0
2017-Oct-26 05:19N 41°10' W 008°47'0 0.0
2017-Oct-26 04:58N 41°10' W 008°47'0 0.0
2017-Oct-26 04:28N 41°10' W 008°47'0 0.0
2017-Oct-26 03:58N 41°10' W 008°47'0 0.0
2017-Oct-26 03:28N 41°10' W 008°47'0 0.0
2017-Oct-26 02:58N 41°10' W 008°47'0 0.0
2017-Oct-26 02:28N 41°10' W 008°47'0 0.0
2017-Oct-26 01:58N 41°10' W 008°47'0 0.1
2017-Oct-26 01:28N 41°10' W 008°47'0 0.1
2017-Oct-26 00:58N 41°10' W 008°47'0 0.0
2017-Oct-26 00:28N 41°10' W 008°47'0 0.0
2017-Oct-25 23:58N 41°10' W 008°47'0 0.0
2017-Oct-25 23:28N 41°10' W 008°47'0 0.0
2017-Oct-25 22:58N 41°10' W 008°47'0 0.0
2017-Oct-25 22:28N 41°10' W 008°47'0 0.1
2017-Oct-25 21:58N 41°10' W 008°47'0 0.0
2017-Oct-25 21:28N 41°10' W 008°47'0 0.1
2017-Oct-25 20:58N 41°10' W 008°47'0 0.1
2017-Oct-25 20:28N 41°10' W 008°47'0 0.0
2017-Oct-25 19:58N 41°10' W 008°47'0 0.0
2017-Oct-25 19:28N 41°10' W 008°47'0 0.0
2017-Oct-25 18:58N 41°10' W 008°47'0 0.2
2017-Oct-25 18:30N 41°11' W 008°47'2 4.1
2017-Oct-25 18:00N 41°12' W 008°45'0 0.5
2017-Oct-25 17:29N 41°12' W 008°45'0 0.0
2017-Oct-25 16:56N 41°12' W 008°45'0 0.0
2017-Oct-25 16:29N 41°12' W 008°45'0 0.0
2017-Oct-25 15:59N 41°12' W 008°45'0 0.0
2017-Oct-25 15:29N 41°12' W 008°45'0 0.0
2017-Oct-25 14:59N 41°12' W 008°45'0 0.0
2017-Oct-25 14:29N 41°12' W 008°45'0 0.0
2017-Oct-25 13:59N 41°12' W 008°45'0 0.1
2017-Oct-25 13:29N 41°12' W 008°45'0 0.0
2017-Oct-25 12:59N 41°12' W 008°45'0 0.0
2017-Oct-25 12:29N 41°12' W 008°45'0 0.0
2017-Oct-25 11:59N 41°12' W 008°45'0 0.0
2017-Oct-25 11:29N 41°12' W 008°45'0 0.0
2017-Oct-25 10:59N 41°12' W 008°45'0 0.0
2017-Oct-25 10:29N 41°12' W 008°45'0 0.0
2017-Oct-25 09:59N 41°12' W 008°45'0 0.1
2017-Oct-25 09:29N 41°12' W 008°45'0 0.1
2017-Oct-25 08:59N 41°12' W 008°45'0 0.1
2017-Oct-25 08:29N 41°12' W 008°45'0 0.0
2017-Oct-25 07:59N 41°12' W 008°45'0 0.0
2017-Oct-25 07:29N 41°12' W 008°45'0 0.1
2017-Oct-25 06:56N 41°12' W 008°45'0 0.0
2017-Oct-25 06:29N 41°12' W 008°45'0 0.0
2017-Oct-25 05:59N 41°12' W 008°45'0 0.1
2017-Oct-25 05:29N 41°12' W 008°45'0 0.0
2017-Oct-25 04:59N 41°12' W 008°45'0 0.0
2017-Oct-25 04:29N 41°12' W 008°45'0 0.0
2017-Oct-25 03:50N 41°12' W 008°45'0 0.0
2017-Oct-25 03:29N 41°12' W 008°45'0 0.0
2017-Oct-25 02:59N 41°12' W 008°45'0 0.0
2017-Oct-25 02:29N 41°12' W 008°45'0 0.0
2017-Oct-25 01:59N 41°12' W 008°45'0 0.0
2017-Oct-25 01:29N 41°12' W 008°45'0 0.1
2017-Oct-25 00:59N 41°12' W 008°45'0 0.0
2017-Oct-25 00:29N 41°12' W 008°45'0 0.1
2017-Oct-24 23:59N 41°12' W 008°45'0 0.1
2017-Oct-24 23:29N 41°12' W 008°45'0 0.1
2017-Oct-24 22:59N 41°12' W 008°45'0 0.0
2017-Oct-24 22:29N 41°12' W 008°45'0 0.0
2017-Oct-24 21:59N 41°12' W 008°45'0 0.1
2017-Oct-24 21:29N 41°12' W 008°45'0 0.0
2017-Oct-24 20:59N 41°12' W 008°45'0 0.1
2017-Oct-24 20:29N 41°12' W 008°45'0 0.1
2017-Oct-24 19:59N 41°12' W 008°45'0 0.0
2017-Oct-24 19:29N 41°12' W 008°45'0 0.1
2017-Oct-24 18:59N 41°12' W 008°45'0 0.1
2017-Oct-24 18:29N 41°12' W 008°45'0 0.1
2017-Oct-24 17:59N 41°12' W 008°45'0 0.0
2017-Oct-24 17:29N 41°12' W 008°45'0 0.1
2017-Oct-24 16:59N 41°12' W 008°45'0 0.1
2017-Oct-24 16:29N 41°12' W 008°45'0 0.0
2017-Oct-24 15:53N 41°12' W 008°45'0 0.0
2017-Oct-24 15:29N 41°12' W 008°45'0 0.0
2017-Oct-24 14:41N 41°12' W 008°45'0 0.0
2017-Oct-24 14:26N 41°12' W 008°45'0 0.0
2017-Oct-24 13:59N 41°12' W 008°45'0 0.0
2017-Oct-24 13:29N 41°12' W 008°45'0 0.0
2017-Oct-24 12:50N 41°12' W 008°45'0 0.0
2017-Oct-24 12:29N 41°12' W 008°45'0 0.1
2017-Oct-24 11:59N 41°12' W 008°45'0 0.2
2017-Oct-24 11:29N 41°12' W 008°45'0 0.1
2017-Oct-24 10:59N 41°12' W 008°45'0 0.8
2017-Oct-24 10:30N 41°12' W 008°45'1 2.6
2017-Oct-24 10:00N 41°10' W 008°45'2 3.1
2017-Oct-24 09:30N 41°09' W 008°46'1 1.1
2017-Oct-24 09:00N 41°09' W 008°47'1 2.8
2017-Oct-24 08:31N 41°09' W 008°49'3 4.1
2017-Oct-24 07:53N 41°07' W 008°51'3 7.5
2017-Oct-24 07:26N 41°03' W 008°52'6 0.3
2017-Oct-23 08:40N 41°09' W 008°54'1 1.9
2017-Oct-23 08:00N 41°10' W 008°55'1 2.7
2017-Oct-23 07:30N 41°11' W 008°57'2 4.0
2017-Oct-23 07:00N 41°12' W 008°59'5 5.6
2017-Oct-23 06:10N 41°14' W 009°04'1 5.3
2017-Oct-23 06:00N 41°15' W 009°05'3 5.1
2017-Oct-23 05:23N 41°16' W 009°09'2 5.5
2017-Oct-23 05:00N 41°17' W 009°12'3 5.6
2017-Oct-23 04:30N 41°18' W 009°15'  

Dump ship's entire track history